createdAt,value
2022-08-05T00:04:56.928Z,50.90
2022-08-05T00:09:58.797Z,51.10
2022-08-05T00:15:14.004Z,52.70
2022-08-05T00:20:22.408Z,53.90
2022-08-05T00:25:45.685Z,55.90
2022-08-05T00:30:52.137Z,56.90
2022-08-05T00:36:15.180Z,57.40
2022-08-05T00:41:28.708Z,57.90
2022-08-05T00:46:54.269Z,59.00
2022-08-05T00:52:04.837Z,59.30
2022-08-05T00:57:06.593Z,60.40
2022-08-05T01:02:08.821Z,60.80
2022-08-05T01:07:13.506Z,61.90
2022-08-05T01:12:20.198Z,63.00
2022-08-05T01:17:53.565Z,63.00
2022-08-05T01:23:14.930Z,63.20
2022-08-05T01:28:41.298Z,63.60
2022-08-05T01:33:53.530Z,63.30
2022-08-05T01:38:56.399Z,63.10
2022-08-05T01:44:03.060Z,62.70
2022-08-05T01:49:22.706Z,62.60
2022-08-05T01:54:31.628Z,62.50
2022-08-05T01:59:36.293Z,62.00
2022-08-05T02:04:40.755Z,62.40
2022-08-05T02:09:44.225Z,62.50
2022-08-05T02:14:53.354Z,62.40
2022-08-05T02:20:01.736Z,61.70
2022-08-05T02:25:12.650Z,62.10
2022-08-05T02:30:16.514Z,62.70
2022-08-05T02:35:28.041Z,62.50
2022-08-05T02:40:36.220Z,62.20
2022-08-05T02:45:52.765Z,62.30
2022-08-05T02:50:58.478Z,62.40
2022-08-05T02:56:02.075Z,63.40
2022-08-05T03:01:04.994Z,63.70
2022-08-05T03:06:56.651Z,64.00
2022-08-05T03:11:55.277Z,64.40
2022-08-05T03:16:53.621Z,64.80
2022-08-05T03:21:55.410Z,65.00
2022-08-05T03:26:58.697Z,65.30
2022-08-05T03:32:00.938Z,65.40
2022-08-05T03:37:04.433Z,65.70
2022-08-05T03:42:06.570Z,66.50
2022-08-05T03:47:09.271Z,66.90
2022-08-05T03:52:37.710Z,66.90
2022-08-05T03:57:46.111Z,67.40
2022-08-05T04:02:57.724Z,67.30
2022-08-05T04:08:29.745Z,68.30
2022-08-05T04:13:50.071Z,68.70
2022-08-05T04:18:54.138Z,69.20
2022-08-05T04:24:06.487Z,70.70
2022-08-05T04:29:08.913Z,71.00
2022-08-05T04:34:19.342Z,71.60
2022-08-05T04:39:33.475Z,72.20
2022-08-05T04:44:37.526Z,72.30
2022-08-05T04:50:01.977Z,71.90
2022-08-05T04:55:13.987Z,71.80
2022-08-05T05:00:17.282Z,72.20
2022-08-05T05:05:28.236Z,73.00
2022-08-05T05:10:33.875Z,73.50
2022-08-05T05:15:59.085Z,73.80
2022-08-05T05:20:57.618Z,70.70
2022-08-05T05:26:00.503Z,66.80
2022-08-05T05:31:02.499Z,66.00
2022-08-05T05:36:07.942Z,66.70
2022-08-05T05:41:12.268Z,67.30
2022-08-05T05:46:20.756Z,66.90
2022-08-05T05:51:27.737Z,68.50
2022-08-05T05:56:34.379Z,65.60
2022-08-05T06:01:57.692Z,62.90
2022-08-05T06:07:01.392Z,61.60
2022-08-05T06:12:04.448Z,60.00
2022-08-05T06:17:22.513Z,60.50
2022-08-05T06:22:29.553Z,57.00
2022-08-05T06:28:10.998Z,54.90
2022-08-05T06:32:53.988Z,54.30
2022-08-05T06:37:59.027Z,54.40
2022-08-05T06:43:02.994Z,53.50
2022-08-05T06:48:47.408Z,52.80
2022-08-05T06:53:28.237Z,55.50
2022-08-05T06:58:36.404Z,56.20
2022-08-05T07:03:38.664Z,53.90
2022-08-05T07:08:40.671Z,52.90
2022-08-05T07:14:02.648Z,52.10
2022-08-05T07:19:04.545Z,49.90
2022-08-05T07:24:09.202Z,50.40
2022-08-05T07:29:13.852Z,50.00
2022-08-05T07:34:15.587Z,49.90
2022-08-05T07:39:24.831Z,49.60
2022-08-05T07:44:46.304Z,50.10
2022-08-05T07:49:54.505Z,49.50
2022-08-05T07:54:57.088Z,49.60
2022-08-05T07:59:59.936Z,49.90
2022-08-05T08:05:02.531Z,49.20
2022-08-05T08:10:06.040Z,48.80
2022-08-05T08:15:15.450Z,47.60
2022-08-05T08:20:43.977Z,48.90
2022-08-05T08:26:00.108Z,49.00
2022-08-05T08:31:01.884Z,48.10
2022-08-05T08:41:52.671Z,48.30
2022-08-05T08:46:56.883Z,47.60
2022-08-05T08:52:13.678Z,49.90
2022-08-05T08:57:16.356Z,51.60
2022-08-05T09:02:21.035Z,52.20
2022-08-05T09:07:39.938Z,50.40
2022-08-05T09:12:50.837Z,50.60
2022-08-05T09:17:55.042Z,50.90
2022-08-05T09:23:18.697Z,51.80
2022-08-05T09:28:24.377Z,50.60
2022-08-05T09:33:58.632Z,48.50
2022-08-05T09:39:18.207Z,47.60
2022-08-05T09:44:38.186Z,46.30
2022-08-05T09:50:01.632Z,45.60
2022-08-05T09:55:56.833Z,45.30
2022-08-05T10:00:30.847Z,45.40
2022-08-05T10:05:33.590Z,45.80
2022-08-05T10:10:44.967Z,45.90
2022-08-05T10:15:50.047Z,45.80
2022-08-05T10:20:56.950Z,45.40
2022-08-05T10:26:01.561Z,46.50
2022-08-05T10:32:50.726Z,46.30
2022-08-05T10:36:26.729Z,48.60
2022-08-05T10:41:46.554Z,50.80
2022-08-05T10:46:54.204Z,51.20
2022-08-05T10:52:02.336Z,51.60
2022-08-05T10:57:05.083Z,50.60
2022-08-05T11:02:14.532Z,48.80
2022-08-05T11:08:02.619Z,48.40
2022-08-05T11:12:57.285Z,48.60
2022-08-05T11:18:32.414Z,48.20
2022-08-05T11:24:05.661Z,46.00
2022-08-05T11:29:13.827Z,46.10
2022-08-05T11:34:18.090Z,46.00
2022-08-05T11:40:00.464Z,44.50
2022-08-05T11:45:14.205Z,45.80
2022-08-05T11:50:25.900Z,46.10
2022-08-05T11:55:32.230Z,45.00
2022-08-05T12:00:39.042Z,44.30
2022-08-05T12:05:43.766Z,45.00
2022-08-05T12:10:46.625Z,45.30
2022-08-05T12:15:50.577Z,45.40
2022-08-05T12:21:09.680Z,45.60
2022-08-05T12:26:11.466Z,44.90
2022-08-05T12:31:23.103Z,45.00
2022-08-05T12:36:25.770Z,44.90
2022-08-05T12:41:34.487Z,44.80
2022-08-05T12:46:39.643Z,43.70
2022-08-05T12:52:14.394Z,42.20
2022-08-05T12:57:13.669Z,41.60
2022-08-05T13:02:27.337Z,42.20
2022-08-05T13:07:57.137Z,43.30
2022-08-05T13:12:58.148Z,44.00
2022-08-05T13:18:00.152Z,44.80
2022-08-05T13:23:07.202Z,44.40
2022-08-05T13:28:10.668Z,43.80
2022-08-05T13:33:14.297Z,44.50
2022-08-05T13:38:36.231Z,43.70
2022-08-05T13:43:44.331Z,44.00
2022-08-05T13:48:57.169Z,44.20
2022-08-05T13:54:01.288Z,45.20
2022-08-05T13:59:06.100Z,45.50
2022-08-05T14:04:40.294Z,46.00
2022-08-05T14:09:42.826Z,46.20
2022-08-05T14:14:48.564Z,46.60
2022-08-05T14:19:59.597Z,47.30
2022-08-05T14:25:06.367Z,48.30
2022-08-05T14:30:21.556Z,49.20
2022-08-05T14:35:23.794Z,49.40
2022-08-05T14:40:40.961Z,48.90
2022-08-05T14:45:45.808Z,49.70
2022-08-05T14:50:47.690Z,49.60
2022-08-05T14:55:52.542Z,49.20
2022-08-05T15:00:59.115Z,48.60
2022-08-05T15:06:07.943Z,48.60
2022-08-05T15:11:15.509Z,49.00
2022-08-05T15:16:17.751Z,49.80
2022-08-05T15:21:21.113Z,51.00
2022-08-05T15:26:32.139Z,53.00
2022-08-05T15:31:34.994Z,53.50
2022-08-05T15:36:36.950Z,54.40
2022-08-05T15:41:57.267Z,55.00
2022-08-05T15:47:01.834Z,55.60
2022-08-05T15:52:16.885Z,55.60
2022-08-05T15:57:25.735Z,55.90
2022-08-05T16:02:35.001Z,57.50
2022-08-05T16:07:36.899Z,58.00
2022-08-05T16:12:38.687Z,58.10
2022-08-05T16:17:41.000Z,58.40
2022-08-05T16:22:42.814Z,58.70
2022-08-05T16:27:59.764Z,59.20
2022-08-05T16:33:07.025Z,59.80
2022-08-05T16:38:24.489Z,60.40
2022-08-05T16:43:30.379Z,60.80
2022-08-05T16:48:33.938Z,61.20
2022-08-05T16:54:05.063Z,61.20
2022-08-05T16:59:07.695Z,61.00
2022-08-05T17:04:10.460Z,61.30
2022-08-05T17:09:12.228Z,61.30
2022-08-05T17:14:22.401Z,61.20
2022-08-05T17:19:37.583Z,61.10
2022-08-05T17:24:45.403Z,60.60
2022-08-05T17:30:00.624Z,60.80
2022-08-05T17:35:04.181Z,61.00
2022-08-05T17:40:10.390Z,61.40
2022-08-05T17:45:20.664Z,61.50
2022-08-05T17:50:28.715Z,61.90
2022-08-05T17:55:37.336Z,66.10
2022-08-05T18:00:45.020Z,68.90
2022-08-05T18:05:53.328Z,70.70
2022-08-05T18:10:55.503Z,72.20
2022-08-05T18:15:59.116Z,72.90
2022-08-05T18:21:01.662Z,74.10
2022-08-05T18:26:04.777Z,75.20
2022-08-05T18:31:07.284Z,75.90
2022-08-05T18:36:15.376Z,76.80
2022-08-05T18:41:53.642Z,77.20
2022-08-05T18:46:41.305Z,76.60
2022-08-05T18:52:08.976Z,76.60
2022-08-05T18:57:15.190Z,77.20
2022-08-05T19:02:26.754Z,77.80
2022-08-05T19:07:45.092Z,77.70
2022-08-05T19:12:48.294Z,79.10
2022-08-05T19:18:08.562Z,79.20
2022-08-05T19:24:04.256Z,79.20
2022-08-05T19:28:34.951Z,79.90
2022-08-05T19:33:38.085Z,80.00
2022-08-05T19:38:43.751Z,80.30
2022-08-05T19:44:06.368Z,80.40
2022-08-05T19:49:07.557Z,80.40
2022-08-05T19:54:22.838Z,78.40
2022-08-05T19:59:56.320Z,77.00
2022-08-05T20:04:58.849Z,76.30
2022-08-05T20:10:01.445Z,77.30
2022-08-05T20:15:07.401Z,78.00
2022-08-05T20:20:11.232Z,79.20
2022-08-05T20:25:13.019Z,79.80
2022-08-05T20:30:15.248Z,81.20
2022-08-05T20:35:21.593Z,80.90
2022-08-05T20:40:23.870Z,81.50
2022-08-05T20:45:56.429Z,82.70
2022-08-05T20:50:47.827Z,82.10
2022-08-05T20:55:56.757Z,83.30
2022-08-05T21:01:10.867Z,84.00
2022-08-05T21:06:27.885Z,85.10
2022-08-05T21:12:09.457Z,85.40
2022-08-05T21:16:52.268Z,86.00
2022-08-05T21:21:54.285Z,86.50
2022-08-05T21:26:58.800Z,87.20
2022-08-05T21:32:02.587Z,87.80
2022-08-05T21:37:05.111Z,87.80
2022-08-05T21:42:07.236Z,85.70
2022-08-05T21:47:54.703Z,85.50
2022-08-05T21:52:50.961Z,85.30
2022-08-05T21:57:52.784Z,84.70
2022-08-05T22:02:55.728Z,83.90
2022-08-05T22:07:58.957Z,83.60
2022-08-05T22:13:09.146Z,83.30
2022-08-05T22:18:26.192Z,83.60
2022-08-05T22:24:01.993Z,83.30
2022-08-05T22:29:05.804Z,83.40
2022-08-05T22:34:08.118Z,84.10
2022-08-05T22:39:12.731Z,84.20
2022-08-05T22:44:16.125Z,83.70
2022-08-05T22:50:17.639Z,83.90
2022-08-05T22:54:46.659Z,83.60
2022-08-05T22:59:54.110Z,83.30
2022-08-05T23:04:56.351Z,83.30
2022-08-05T23:10:01.920Z,83.50
2022-08-05T23:15:08.861Z,83.40
2022-08-05T23:20:17.662Z,83.60
2022-08-05T23:25:52.394Z,83.10
2022-08-05T23:30:43.802Z,82.70
2022-08-05T23:35:45.787Z,83.00
2022-08-05T23:40:49.449Z,83.10
2022-08-05T23:45:52.274Z,83.40
2022-08-05T23:50:54.713Z,83.30
2022-08-05T23:55:56.500Z,83.40
